Time;durP1;ratioP1;P1;durP2;ratioP2;P2;SDS_P1;SDS_P2;PMS_P1;PMS_P2;Temp;Humidity;BMP_temperature;BMP_pressure;BME280_temperature;BME280_humidity;BME280_pressure;Samples;Min_cycle;Max_cycle;Signal;HPM_P1;HPM_P2
2022/03/23 00:00:43;;;;;;;22.83;11.38;;;;;;;5.79;40.62;101554.16;4391970;32;34544;-59
2022/03/23 00:03:13;;;;;;;24.42;13.35;;;;;;;5.71;40.34;101559.47;4394825;32;33979;-58
2022/03/23 00:05:41;;;;;;;21.12;11.90;;;;;;;5.54;41.14;101559.59;4403489;32;33887;-58
2022/03/23 00:08:09;;;;;;;21.73;11.90;;;;;;;5.66;40.41;101555.59;4395918;32;34689;-59
2022/03/23 00:10:37;;;;;;;21.05;11.77;;;;;;;6.06;39.58;101553.22;4376602;32;34376;-59
2022/03/23 00:13:04;;;;;;;23.25;11.40;;;;;;;6.25;39.09;101550.66;4397493;32;33828;-59
2022/03/23 00:15:31;;;;;;;22.33;11.25;;;;;;;6.72;38.55;101548.81;4400014;32;33660;-59
2022/03/23 00:17:59;;;;;;;18.62;10.55;;;;;;;6.53;38.32;101550.53;4392380;32;34398;-59
2022/03/23 00:20:27;;;;;;;21.50;11.30;;;;;;;6.68;37.01;101539.00;4388672;32;33868;-57
2022/03/23 00:22:54;;;;;;;23.55;12.10;;;;;;;6.60;37.89;101543.47;4386808;32;34950;-59
2022/03/23 00:25:22;;;;;;;24.00;12.55;;;;;;;6.09;39.32;101551.84;4391603;32;33263;-58
2022/03/23 00:27:49;;;;;;;24.55;11.98;;;;;;;5.94;39.59;101550.41;4381935;32;32407;-58
2022/03/23 00:30:17;;;;;;;25.73;11.40;;;;;;;6.09;39.20;101546.69;4391876;32;32701;-57
2022/03/23 00:32:45;;;;;;;23.10;11.00;;;;;;;6.29;38.80;101543.31;4389838;32;34907;-57
2022/03/23 00:35:12;;;;;;;23.80;12.73;;;;;;;6.90;37.52;101531.50;4380515;32;33257;-58
2022/03/23 00:37:40;;;;;;;21.42;11.50;;;;;;;7.03;37.55;101534.38;4388015;32;33967;-57
2022/03/23 00:40:08;;;;;;;20.58;11.75;;;;;;;6.25;39.57;101537.78;4388696;32;33754;-58
2022/03/23 00:42:36;;;;;;;33.80;15.23;;;;;;;6.85;38.30;101532.78;4391624;32;34772;-57
2022/03/23 00:45:06;;;;;;;32.75;15.13;;;;;;;5.84;40.32;101535.81;4391685;32;34223;-59
2022/03/23 00:47:35;;;;;;;25.15;13.85;;;;;;;5.46;41.45;101534.84;4388673;32;33543;-58
2022/03/23 00:50:03;;;;;;;24.45;13.40;;;;;;;5.49;41.34;101530.91;4389222;32;33630;-58
2022/03/23 00:52:30;;;;;;;39.80;20.80;;;;;;;5.31;42.46;101530.09;4391726;32;34783;-58
2022/03/23 00:54:58;;;;;;;28.17;15.32;;;;;;;6.16;40.61;101534.38;4388606;32;33736;-58
2022/03/23 00:57:25;;;;;;;28.08;15.40;;;;;;;6.24;39.90;101528.25;4377606;32;33622;-58
2022/03/23 00:59:53;;;;;;;27.08;16.37;;;;;;;6.57;39.38;101530.34;4390443;32;34762;-58
2022/03/23 01:02:20;;;;;;;27.35;15.10;;;;;;;6.13;40.87;101531.53;4387303;32;34083;-57
2022/03/23 01:04:48;;;;;;;31.25;16.33;;;;;;;6.63;39.71;101535.16;4391506;32;33601;-58
2022/03/23 01:07:15;;;;;;;24.45;13.77;;;;;;;6.06;40.59;101533.53;4389000;32;33861;-58
2022/03/23 01:09:43;;;;;;;23.08;12.85;;;;;;;6.12;41.09;101522.00;4386724;32;84980;-58
2022/03/23 01:12:11;;;;;;;24.17;12.88;;;;;;;6.10;40.82;101520.22;4393549;32;33878;-58
2022/03/23 01:14:38;;;;;;;22.20;12.52;;;;;;;5.30;42.86;101523.12;4394092;32;33605;-58
2022/03/23 01:17:07;;;;;;;26.83;12.60;;;;;;;4.93;43.87;101524.81;4392515;32;34399;-58
2022/03/23 01:19:34;;;;;;;25.48;12.85;;;;;;;4.78;45.28;101518.22;4391984;32;33842;-58
2022/03/23 01:22:02;;;;;;;20.30;12.20;;;;;;;5.62;42.98;101525.22;4391202;32;34830;-57
2022/03/23 01:24:29;;;;;;;23.02;13.50;;;;;;;5.66;42.77;101529.88;4391932;32;33704;-58
2022/03/23 01:26:58;;;;;;;29.60;15.43;;;;;;;6.42;41.12;101519.59;4393418;32;33506;-58
2022/03/23 01:29:25;;;;;;;28.30;13.80;;;;;;;5.89;41.51;101518.19;4393234;32;33884;-58
2022/03/23 01:31:53;;;;;;;26.00;12.88;;;;;;;5.63;41.50;101511.59;4392386;32;34165;-58
2022/03/23 01:34:21;;;;;;;19.45;10.80;;;;;;;5.66;41.95;101513.53;4380706;32;33720;-58
2022/03/23 01:36:49;;;;;;;27.23;13.88;;;;;;;5.60;41.96;101508.75;4377177;32;32356;-58
2022/03/23 01:39:17;;;;;;;23.95;12.37;;;;;;;5.50;42.74;101509.59;4390935;32;34684;-57
2022/03/23 01:41:44;;;;;;;26.83;13.52;;;;;;;4.89;43.41;101507.31;4393480;32;33702;-58
2022/03/23 01:44:13;;;;;;;26.45;15.20;;;;;;;4.77;43.58;101503.59;4389770;32;34367;-58
2022/03/23 01:47:07;;;;;;;26.15;14.13;;;;;;;4.20;46.27;101502.38;4392224;32;34377;-57
2022/03/23 01:49:37;;;;;;;22.10;12.13;;;;;;;4.43;45.30;101512.28;4392036;32;33771;-58
2022/03/23 01:52:06;;;;;;;21.00;11.45;;;;;;;3.87;47.12;101511.13;4391317;32;34692;-58
2022/03/23 01:54:36;;;;;;;21.95;11.80;;;;;;;3.89;47.12;101514.75;4393246;32;34239;-58
2022/03/23 01:57:04;;;;;;;21.12;11.88;;;;;;;4.01;46.14;101504.78;4391473;32;33503;-57
2022/03/23 01:59:32;;;;;;;19.58;11.82;;;;;;;4.49;45.42;101498.37;4393738;32;33756;-58
2022/03/23 02:02:00;;;;;;;23.35;12.35;;;;;;;3.79;47.42;101506.91;4404424;27;34813;-80
2022/03/23 02:04:29;;;;;;;20.73;10.98;;;;;;;3.62;47.57;101507.78;4377704;32;33668;-80
2022/03/23 02:06:56;;;;;;;25.33;12.73;;;;;;;3.82;46.51;101512.31;4410842;27;33902;-69
2022/03/23 02:09:25;;;;;;;22.33;11.80;;;;;;;3.99;45.49;101501.16;4395782;32;33155;-67
2022/03/23 02:11:54;;;;;;;26.27;11.25;;;;;;;3.32;48.88;101507.44;4398603;32;34161;-66
2022/03/23 02:14:22;;;;;;;20.95;11.68;;;;;;;4.33;44.45;101507.94;4383445;32;33704;-65
2022/03/23 02:16:51;;;;;;;22.55;11.73;;;;;;;4.14;45.40;101512.94;4398749;32;33682;-66
2022/03/23 02:19:21;;;;;;;20.92;10.70;;;;;;;4.14;45.81;101503.56;4395870;32;33818;-65
2022/03/23 02:21:52;;;;;;;19.83;11.02;;;;;;;3.82;46.67;101512.31;4405372;32;33769;-67
2022/03/23 02:24:25;;;;;;;20.80;9.88;;;;;;;3.81;46.16;101506.28;4394961;32;34357;-66
2022/03/23 02:26:53;;;;;;;22.50;12.32;;;;;;;4.96;43.36;101497.63;4400624;32;34564;-66
2022/03/23 02:29:29;;;;;;;22.67;11.12;;;;;;;3.64;48.86;101502.06;4395570;32;32983;-66
2022/03/23 02:31:56;;;;;;;23.33;10.82;;;;;;;4.41;44.20;101504.44;4398470;32;33829;-65
2022/03/23 02:34:27;;;;;;;21.27;11.07;;;;;;;5.09;43.32;101500.59;4393036;32;33656;-66
2022/03/23 02:36:58;;;;;;;19.87;11.90;;;;;;;3.72;46.95;101496.03;4392352;32;33932;-66
2022/03/23 02:39:26;;;;;;;20.52;11.02;;;;;;;4.42;45.04;101511.34;4397368;32;33741;-66
2022/03/23 02:41:54;;;;;;;19.80;11.23;;;;;;;4.05;44.88;101507.78;4398524;32;34781;-66
2022/03/23 02:44:21;;;;;;;20.00;11.73;;;;;;;4.41;45.43;101509.56;4394027;32;33369;-66
2022/03/23 02:46:49;;;;;;;20.65;10.73;;;;;;;4.42;43.60;101497.63;4405980;32;33753;-66
2022/03/23 02:49:18;;;;;;;16.50;9.95;;;;;;;4.31;44.51;101506.88;4391260;32;33732;-67
2022/03/23 02:51:45;;;;;;;20.42;11.00;;;;;;;4.52;43.39;101498.69;4399194;32;34240;-67
2022/03/23 03:02:59;;;;;;;17.52;9.55;;;;;;;4.03;44.77;101509.31;4399585;32;33871;-66
2022/03/23 03:05:27;;;;;;;22.92;10.45;;;;;;;4.35;43.86;101503.84;4396534;32;32352;-67
2022/03/23 03:10:40;;;;;;;18.60;9.85;;;;;;;5.87;40.79;101501.72;4394526;32;33541;-65
2022/03/23 03:13:08;;;;;;;20.08;10.27;;;;;;;5.37;41.86;101503.16;4399038;32;34386;-66
2022/03/23 03:15:35;;;;;;;19.67;10.07;;;;;;;5.61;41.85;101505.41;4398098;32;33189;-65
2022/03/23 03:18:03;;;;;;;21.27;11.75;;;;;;;4.20;44.66;101504.94;4400326;32;33985;-65
2022/03/23 03:20:31;;;;;;;17.70;9.57;;;;;;;3.88;45.72;101510.34;4399149;32;34566;-67
2022/03/23 03:22:58;;;;;;;20.42;10.82;;;;;;;3.97;45.61;101518.97;4400085;32;33901;-66
2022/03/23 03:25:26;;;;;;;18.48;11.05;;;;;;;3.79;46.08;101512.03;4392030;32;34452;-65
2022/03/23 03:27:53;;;;;;;20.20;11.23;;;;;;;5.28;42.81;101503.22;4394605;32;34621;-67
2022/03/23 03:30:21;;;;;;;18.95;10.70;;;;;;;4.91;43.22;101507.47;4383111;32;33846;-67
2022/03/23 03:32:48;;;;;;;16.65;9.63;;;;;;;5.61;41.58;101494.22;4386161;32;34857;-65
2022/03/23 03:35:16;;;;;;;24.33;9.82;;;;;;;5.57;40.73;101508.47;4393668;32;33727;-67
2022/03/23 03:37:43;;;;;;;17.85;9.43;;;;;;;5.42;41.72;101497.66;4393311;32;33783;-67
2022/03/23 03:40:11;;;;;;;20.58;10.23;;;;;;;5.53;41.82;101501.25;4399562;32;33845;-65
2022/03/23 03:42:39;;;;;;;20.55;11.35;;;;;;;4.19;45.02;101495.41;4403506;32;34018;-66
2022/03/23 03:45:08;;;;;;;20.48;10.05;;;;;;;4.48;43.71;101491.44;4385083;32;33572;-65
2022/03/23 03:47:35;;;;;;;19.75;9.73;;;;;;;3.33;48.27;101498.09;4392110;32;34545;-66
2022/03/23 03:50:03;;;;;;;16.37;9.63;;;;;;;3.70;46.19;101494.97;4373941;32;33534;-66
2022/03/23 03:52:30;;;;;;;20.05;8.95;;;;;;;3.66;46.43;101490.28;4392813;32;34123;-66
2022/03/23 03:54:58;;;;;;;20.60;11.05;;;;;;;3.57;46.83;101488.47;4397906;32;33666;-66
2022/03/23 03:57:26;;;;;;;25.90;13.18;;;;;;;3.39;47.63;101497.81;4397237;32;34598;-66
2022/03/23 03:59:53;;;;;;;19.60;10.25;;;;;;;3.71;47.29;101503.59;4396243;32;34073;-67
2022/03/23 04:02:21;;;;;;;19.20;9.57;;;;;;;3.97;46.54;101493.31;4395917;32;34361;-66
2022/03/23 04:04:49;;;;;;;21.02;9.88;;;;;;;4.59;44.32;101494.13;4395626;32;34383;-67
2022/03/23 04:07:16;;;;;;;20.08;10.20;;;;;;;3.87;46.52;101500.88;4389490;32;33401;-65
2022/03/23 04:09:43;;;;;;;22.45;10.25;;;;;;;3.38;48.13;101503.66;4394114;32;33876;-65
2022/03/23 04:12:11;;;;;;;17.35;8.90;;;;;;;4.24;47.00;101501.91;4401133;32;32957;-68
2022/03/23 04:14:38;;;;;;;18.83;9.68;;;;;;;3.83;46.14;101506.44;4395739;32;34094;-66
2022/03/23 04:17:06;;;;;;;18.00;9.98;;;;;;;4.32;44.03;101500.97;4397825;32;33986;-66
2022/03/23 04:19:34;;;;;;;18.58;9.85;;;;;;;5.06;43.00;101490.94;4397963;32;34040;-66
2022/03/23 04:22:01;;;;;;;18.40;9.23;;;;;;;5.11;43.39;101493.91;4394262;32;34695;-66
2022/03/23 04:24:29;;;;;;;18.85;10.23;;;;;;;4.30;44.54;101499.94;4397256;32;34524;-65
2022/03/23 04:26:56;;;;;;;19.80;11.45;;;;;;;3.93;46.07;101496.34;4393711;32;33756;-66
2022/03/23 04:29:26;;;;;;;24.12;11.68;;;;;;;4.23;45.50;101492.38;4396672;32;34527;-67
2022/03/23 04:31:53;;;;;;;19.33;10.60;;;;;;;5.15;43.29;101485.72;4398837;32;34014;-65
2022/03/23 04:34:21;;;;;;;18.52;10.77;;;;;;;5.36;43.17;101488.50;4390545;32;34305;-66
2022/03/23 04:36:49;;;;;;;20.58;10.85;;;;;;;5.49;42.66;101494.00;4394547;32;33829;-65
2022/03/23 04:39:16;;;;;;;17.42;9.23;;;;;;;5.25;42.40;101488.44;4388247;32;33827;-67
2022/03/23 04:41:44;;;;;;;17.55;9.50;;;;;;;5.13;42.44;101482.13;4397241;32;34670;-66
2022/03/23 04:44:11;;;;;;;20.67;9.60;;;;;;;5.52;42.09;101491.72;4391610;32;33491;-66
2022/03/23 04:46:39;;;;;;;16.45;9.10;;;;;;;5.75;41.87;101492.91;4392721;32;33972;-66
2022/03/23 04:49:08;;;;;;;18.17;9.15;;;;;;;5.78;42.10;101493.22;4399654;32;34710;-67
2022/03/23 04:51:36;;;;;;;17.85;9.18;;;;;;;4.43;47.78;101500.34;4398193;32;34337;-65
2022/03/23 04:54:04;;;;;;;18.85;9.07;;;;;;;5.01;46.66;101501.53;4404954;32;33736;-67
2022/03/23 04:56:32;;;;;;;18.42;9.50;;;;;;;5.45;45.00;101504.78;4392003;32;33613;-66
2022/03/23 04:59:00;;;;;;;19.15;9.73;;;;;;;5.98;42.86;101498.50;4402372;32;33590;-67
2022/03/23 05:01:27;;;;;;;18.60;9.63;;;;;;;6.06;42.31;101509.47;4393964;32;32582;-66
2022/03/23 05:03:57;;;;;;;17.15;8.30;;;;;;;6.14;41.67;101511.06;4396822;32;33673;-66
2022/03/23 05:06:24;;;;;;;20.30;9.48;;;;;;;5.88;42.05;101514.75;4397016;32;33391;-66
2022/03/23 05:08:52;;;;;;;17.00;9.43;;;;;;;5.59;42.90;101514.66;4381007;32;34677;-66
2022/03/23 05:11:19;;;;;;;18.92;8.88;;;;;;;5.34;43.33;101508.00;4396579;32;34688;-67
2022/03/23 05:13:47;;;;;;;19.05;9.43;;;;;;;5.66;42.87;101513.53;4397041;32;34509;-65
2022/03/23 05:16:14;;;;;;;19.35;9.20;;;;;;;5.98;42.30;101521.66;4384763;32;34320;-67
2022/03/23 05:18:42;;;;;;;18.23;9.23;;;;;;;6.01;41.90;101516.81;4399257;32;34569;-67
2022/03/23 05:21:10;;;;;;;20.27;9.15;;;;;;;4.89;42.90;101527.84;4394165;32;33770;-67
2022/03/23 05:23:38;;;;;;;20.60;9.77;;;;;;;5.96;41.28;101530.00;4391920;32;34461;-66
2022/03/23 05:26:06;;;;;;;17.23;9.93;;;;;;;6.02;40.86;101530.56;4405719;32;34512;-67
2022/03/23 05:28:37;;;;;;;17.65;9.23;;;;;;;6.30;40.62;101534.84;4394946;32;33715;-67
2022/03/23 05:31:04;;;;;;;21.58;10.38;;;;;;;5.64;41.65;101535.63;4389454;32;32886;-67
2022/03/23 05:33:32;;;;;;;21.55;9.82;;;;;;;5.50;41.86;101524.06;4397978;32;34496;-67
2022/03/23 05:36:00;;;;;;;19.12;9.13;;;;;;;5.51;42.02;101533.62;4398273;32;34500;-67
2022/03/23 05:38:27;;;;;;;20.45;10.52;;;;;;;5.97;40.88;101525.00;4392515;32;34520;-68
2022/03/23 05:40:56;;;;;;;22.10;10.15;;;;;;;5.72;41.69;101530.44;4386820;32;32745;-67
2022/03/23 05:43:23;;;;;;;27.65;11.32;;;;;;;6.23;40.55;101531.59;4404626;32;33993;-66
2022/03/23 05:45:50;;;;;;;18.87;10.75;;;;;;;6.34;40.33;101528.31;4400096;32;33949;-67
2022/03/23 05:48:18;;;;;;;24.65;11.30;;;;;;;6.52;40.19;101520.41;4391895;32;33873;-67
2022/03/23 05:50:45;;;;;;;24.48;11.75;;;;;;;6.75;39.49;101515.59;4394674;32;34749;-66
2022/03/23 05:53:13;;;;;;;25.33;11.00;;;;;;;7.01;39.68;101509.22;4394356;32;34376;-67
2022/03/23 05:55:41;;;;;;;21.85;10.68;;;;;;;7.11;39.76;101514.44;4394387;32;33730;-66
2022/03/23 05:58:09;;;;;;;20.30;11.40;;;;;;;7.56;39.78;101516.53;4391146;32;33458;-67
2022/03/23 06:00:36;;;;;;;20.40;11.07;;;;;;;7.43;39.06;101516.25;4401685;32;33710;-66
2022/03/23 06:03:04;;;;;;;21.55;10.45;;;;;;;7.85;37.61;101512.91;4399774;32;33442;-66
2022/03/23 06:05:32;;;;;;;21.20;11.05;;;;;;;7.47;37.83;101516.66;4393778;32;33976;-66
2022/03/23 06:07:59;;;;;;;19.98;10.45;;;;;;;7.79;36.88;101517.56;4392044;32;33815;-67
2022/03/23 06:10:27;;;;;;;20.20;10.52;;;;;;;8.00;36.39;101524.50;4398591;32;34855;-66
2022/03/23 06:12:55;;;;;;;24.70;11.02;;;;;;;8.31;35.70;101514.09;4401376;32;34336;-66
2022/03/23 06:15:22;;;;;;;20.45;11.43;;;;;;;8.65;34.85;101516.84;4395605;32;34512;-67
2022/03/23 06:17:50;;;;;;;18.30;10.25;;;;;;;9.00;34.18;101516.13;4397176;32;33437;-66
2022/03/23 06:20:17;;;;;;;22.70;11.68;;;;;;;9.21;33.84;101507.50;4379695;32;33478;-67
2022/03/23 06:22:45;;;;;;;22.62;11.20;;;;;;;9.52;33.56;101507.25;4399295;32;34403;-68
2022/03/23 06:25:12;;;;;;;21.55;10.68;;;;;;;9.79;32.41;101512.69;4395498;32;33823;-66
2022/03/23 06:27:40;;;;;;;21.20;11.02;;;;;;;9.83;32.56;101509.56;4394692;32;33738;-68
2022/03/23 06:30:08;;;;;;;18.05;9.98;;;;;;;9.86;32.71;101514.09;4393642;32;34199;-68
2022/03/23 06:32:35;;;;;;;20.52;10.50;;;;;;;10.28;32.29;101512.88;4394946;32;33454;-66
2022/03/23 06:35:04;;;;;;;19.83;10.32;;;;;;;10.50;31.54;101510.19;4398037;32;34104;-66
2022/03/23 06:37:31;;;;;;;20.27;10.25;;;;;;;10.43;31.70;101506.25;4391853;32;33769;-68
2022/03/23 06:39:59;;;;;;;18.65;10.70;;;;;;;10.79;31.16;101504.50;4395773;32;34549;-67
2022/03/23 06:42:27;;;;;;;18.98;10.32;;;;;;;10.98;30.31;101504.09;4391831;32;33258;-67
2022/03/23 06:44:55;;;;;;;18.75;10.80;;;;;;;11.14;30.27;101512.16;4392967;32;33483;-68
2022/03/23 06:47:23;;;;;;;19.37;9.98;;;;;;;11.19;30.45;101512.50;4393345;32;33673;-67
2022/03/23 06:49:50;;;;;;;18.90;11.32;;;;;;;11.55;29.44;101516.72;4392866;32;34782;-68
2022/03/23 06:52:17;;;;;;;19.02;10.57;;;;;;;11.36;29.69;101513.66;4390326;32;34386;-68
2022/03/23 06:54:45;;;;;;;19.20;11.43;;;;;;;11.77;29.32;101513.88;4390742;32;33880;-66
2022/03/23 06:57:13;;;;;;;21.27;11.10;;;;;;;11.92;28.48;101508.84;4395461;32;33589;-67
2022/03/23 06:59:40;;;;;;;18.35;10.85;;;;;;;12.10;28.47;101508.28;4390141;32;34668;-67
2022/03/23 07:02:08;;;;;;;20.50;10.15;;;;;;;12.04;28.25;101515.66;4391974;32;33910;-66
2022/03/23 07:04:36;;;;;;;20.45;10.38;;;;;;;12.10;28.57;101508.28;4378199;32;31698;-68
2022/03/23 07:07:03;;;;;;;18.05;11.00;;;;;;;12.24;28.25;101507.47;4393082;32;33488;-68
2022/03/23 07:09:31;;;;;;;17.90;10.50;;;;;;;12.27;28.28;101510.28;4379031;32;32523;-67
2022/03/23 07:12:00;;;;;;;19.17;10.73;;;;;;;12.56;27.81;101512.16;4397999;32;33595;-67
2022/03/23 07:14:32;;;;;;;21.52;11.73;;;;;;;12.61;27.99;101515.03;4392936;32;33867;-67
2022/03/23 07:17:00;;;;;;;18.75;10.50;;;;;;;12.81;27.68;101510.22;4377867;32;34047;-67
2022/03/23 07:19:27;;;;;;;19.98;11.60;;;;;;;13.15;27.02;101519.34;4404572;32;34646;-68
2022/03/23 07:21:55;;;;;;;19.42;10.32;;;;;;;13.15;27.15;101523.62;4386503;32;32226;-66
2022/03/23 07:24:23;;;;;;;22.83;11.85;;;;;;;13.22;27.12;101523.19;4392087;32;33849;-67
2022/03/23 07:26:51;;;;;;;18.70;10.80;;;;;;;13.29;26.81;101521.84;4393002;32;34210;-68
2022/03/23 07:29:40;;;;;;;19.05;11.43;;;;;;;13.32;26.92;101524.69;4391715;32;34138;-67
2022/03/23 07:32:08;;;;;;;18.77;11.00;;;;;;;13.37;26.30;101513.75;4382420;32;33436;-66
2022/03/23 07:34:35;;;;;;;24.85;12.48;;;;;;;13.49;26.49;101524.00;4390948;32;33261;-67
2022/03/23 07:37:03;;;;;;;20.70;11.32;;;;;;;13.38;26.60;101517.25;4392733;32;33937;-67
2022/03/23 07:39:31;;;;;;;17.05;10.75;;;;;;;13.30;26.52;101518.50;4392110;32;34195;-66
2022/03/23 07:42:00;;;;;;;21.23;12.15;;;;;;;13.30;26.82;101515.91;4391804;32;34224;-67
2022/03/23 07:44:29;;;;;;;20.12;11.40;;;;;;;13.53;26.68;101510.38;4392905;32;33475;-66
2022/03/23 07:46:56;;;;;;;25.08;11.77;;;;;;;13.92;26.00;101513.53;4391742;32;34765;-68
2022/03/23 07:49:24;;;;;;;21.83;11.68;;;;;;;13.76;26.33;101509.13;4391415;32;35530;-68
2022/03/23 07:51:51;;;;;;;21.95;11.23;;;;;;;13.82;26.33;101508.59;4390879;32;33459;-67
2022/03/23 07:54:19;;;;;;;20.52;11.80;;;;;;;14.24;25.69;101504.09;4388313;32;34762;-68
2022/03/23 07:56:46;;;;;;;18.27;11.52;;;;;;;14.18;25.59;101508.97;4389550;32;34593;-67
2022/03/23 07:59:14;;;;;;;22.10;12.55;;;;;;;14.39;25.88;101498.88;4390790;32;34191;-66
2022/03/23 08:01:41;;;;;;;19.58;11.68;;;;;;;14.23;25.79;101507.50;4392428;32;33411;-66
2022/03/23 08:04:09;;;;;;;24.65;12.65;;;;;;;14.36;25.36;101503.91;4390583;32;34613;-67
2022/03/23 08:06:37;;;;;;;18.20;12.15;;;;;;;14.69;25.72;101499.69;4393111;32;33852;-67
2022/03/23 08:09:05;;;;;;;28.20;12.85;;;;;;;14.80;25.62;101499.41;4389850;32;32964;-66
2022/03/23 08:11:33;;;;;;;19.85;12.52;;;;;;;14.89;25.40;101502.50;4363939;32;33750;-68
2022/03/23 08:14:00;;;;;;;21.45;12.70;;;;;;;14.82;25.75;101496.06;4390402;32;33915;-67
2022/03/23 08:16:28;;;;;;;22.80;12.60;;;;;;;14.93;25.53;101494.00;4400308;32;34605;-66
2022/03/23 08:18:56;;;;;;;22.15;12.50;;;;;;;15.17;25.32;101493.56;4394611;32;34467;-67
2022/03/23 08:21:23;;;;;;;21.75;12.63;;;;;;;15.24;24.97;101495.66;4403694;32;34472;-67
2022/03/23 08:23:51;;;;;;;20.83;13.00;;;;;;;15.14;25.64;101496.88;4393689;32;34579;-67
2022/03/23 08:26:18;;;;;;;19.17;11.75;;;;;;;15.31;24.96;101503.91;4394221;32;33790;-67
2022/03/23 08:28:46;;;;;;;19.65;11.73;;;;;;;15.35;24.52;101504.97;4399634;32;34975;-67
2022/03/23 08:31:14;;;;;;;18.65;11.77;;;;;;;16.00;23.80;101497.84;4395839;32;33720;-67
2022/03/23 08:33:42;;;;;;;18.83;12.27;;;;;;;16.54;23.28;101498.75;4404869;32;33694;-68
2022/03/23 08:36:09;;;;;;;19.30;11.82;;;;;;;17.21;22.30;101500.09;4401107;32;33695;-67
2022/03/23 08:38:37;;;;;;;18.48;11.52;;;;;;;18.32;21.43;101489.12;4385419;32;33882;-68
2022/03/23 08:41:05;;;;;;;18.52;12.77;;;;;;;19.24;20.26;101496.19;4404874;32;33511;-68
2022/03/23 08:43:35;;;;;;;19.55;12.05;;;;;;;19.28;19.62;101489.34;4398251;32;34679;-67
2022/03/23 08:46:03;;;;;;;17.77;12.70;;;;;;;20.07;19.23;101495.59;4404088;32;34048;-68
2022/03/23 08:48:31;;;;;;;21.48;12.43;;;;;;;20.38;19.02;101486.94;4376837;32;32233;-67
2022/03/23 08:50:59;;;;;;;19.33;11.38;;;;;;;20.33;18.98;101487.66;4396507;32;33353;-67
2022/03/23 08:53:27;;;;;;;19.02;11.50;;;;;;;19.64;19.08;101488.81;4404456;32;33967;-66
2022/03/23 08:55:54;;;;;;;18.12;11.40;;;;;;;19.93;18.75;101486.34;4393473;32;33795;-66
2022/03/23 08:58:22;;;;;;;19.90;11.60;;;;;;;20.09;18.83;101480.75;4392993;32;34938;-68
2022/03/23 09:00:49;;;;;;;19.50;10.63;;;;;;;19.13;20.22;101483.53;4392350;32;34429;-68
2022/03/23 09:03:17;;;;;;;18.02;10.65;;;;;;;18.95;19.83;101476.75;4390876;32;34316;-68
2022/03/23 09:05:45;;;;;;;21.70;11.10;;;;;;;18.98;19.98;101484.72;4397890;32;33899;-68
2022/03/23 09:08:12;;;;;;;19.55;11.15;;;;;;;18.83;20.07;101471.94;4396348;32;33906;-67
2022/03/23 09:10:40;;;;;;;19.73;10.95;;;;;;;18.83;20.07;101478.88;4403369;32;33413;-66
2022/03/23 09:13:08;;;;;;;18.33;11.20;;;;;;;18.76;20.18;101471.59;4395248;32;33640;-65
2022/03/23 09:15:35;;;;;;;19.73;11.07;;;;;;;19.00;19.85;101472.53;4397190;32;34839;-68
2022/03/23 09:18:03;;;;;;;19.08;9.75;;;;;;;19.06;19.47;101466.63;4395297;32;33899;-67
2022/03/23 09:20:30;;;;;;;22.33;10.48;;;;;;;19.20;19.86;101464.50;4392427;32;34389;-67
2022/03/23 09:22:58;;;;;;;21.12;10.63;;;;;;;19.30;19.33;101469.25;4394987;32;33679;-66
2022/03/23 09:25:26;;;;;;;16.62;10.48;;;;;;;19.70;18.76;101465.41;4396129;32;34517;-67
2022/03/23 09:27:53;;;;;;;18.37;9.80;;;;;;;20.43;18.60;101463.41;4396692;32;34885;-66
2022/03/23 09:30:21;;;;;;;16.65;10.38;;;;;;;20.46;18.42;101474.03;4402054;32;33468;-66
2022/03/23 09:32:49;;;;;;;17.73;10.05;;;;;;;20.62;18.24;101464.88;4392413;32;34072;-66
2022/03/23 09:35:16;;;;;;;19.58;10.35;;;;;;;20.22;18.47;101458.34;4384667;32;34666;-66
2022/03/23 09:37:48;;;;;;;18.87;10.55;;;;;;;20.62;18.32;101465.78;4398054;32;34225;-66
2022/03/23 09:40:28;;;;;;;18.52;9.98;;;;;;;20.85;17.65;101462.94;4392044;32;33251;-67
2022/03/23 09:43:05;;;;;;;21.77;10.40;;;;;;;21.11;17.59;101466.34;4381755;32;34561;-68
2022/03/23 09:48:03;;;;;;;17.98;9.00;;;;;;;21.06;16.96;101456.53;4397900;32;34834;-66
2022/03/23 09:50:32;;;;;;;17.92;8.82;;;;;;;21.19;16.99;101454.28;4395769;32;32314;-68
2022/03/23 09:53:02;;;;;;;14.07;8.57;;;;;;;21.15;16.61;101456.75;4393909;32;33295;-66
2022/03/23 09:55:30;;;;;;;17.70;8.98;;;;;;;21.48;16.85;101446.28;4394894;32;34026;-68
2022/03/23 09:57:59;;;;;;;15.38;8.95;;;;;;;21.40;16.33;101448.69;4392524;32;35048;-65
2022/03/23 10:00:31;;;;;;;18.48;9.10;;;;;;;21.71;16.41;101446.91;4393165;32;33730;-68
2022/03/23 10:03:11;;;;;;;16.67;8.80;;;;;;;21.60;16.10;101446.59;4376245;32;33994;-67
2022/03/23 10:05:45;;;;;;;18.33;9.23;;;;;;;21.79;15.61;101437.41;4391420;32;34246;-67
2022/03/23 10:08:51;;;;;;;16.75;8.57;;;;;;;21.84;15.70;101432.25;4394107;32;34744;-65
2022/03/23 10:11:56;;;;;;;10.98;6.57;;;;;;;22.35;15.22;101436.13;4374234;32;33677;-66
2022/03/23 10:14:29;;;;;;;10.15;6.43;;;;;;;22.35;14.70;101433.50;4393358;32;33609;-68
2022/03/23 10:17:35;;;;;;;12.68;6.60;;;;;;;22.26;14.55;101428.00;4392342;32;34096;-66
2022/03/23 10:20:03;;;;;;;12.23;6.97;;;;;;;22.69;14.56;101421.91;4384571;32;34966;-67
2022/03/23 10:22:31;;;;;;;11.50;8.13;;;;;;;22.73;14.30;101428.12;4396389;32;34824;-67
2022/03/23 10:25:18;;;;;;;13.70;8.05;;;;;;;23.12;14.47;101427.19;4378391;32;34565;-67
2022/03/23 10:27:47;;;;;;;14.85;8.35;;;;;;;23.52;14.53;101420.00;4395323;32;34796;-66
2022/03/23 10:30:15;;;;;;;12.55;7.57;;;;;;;23.56;14.24;101416.53;4390052;32;34034;-66
2022/03/23 10:32:42;;;;;;;13.00;8.00;;;;;;;23.43;15.18;101415.44;4396746;32;33752;-67
2022/03/23 10:35:13;;;;;;;13.38;8.02;;;;;;;23.03;14.09;101419.09;4392973;32;34634;-66
2022/03/23 10:37:41;;;;;;;14.27;8.40;;;;;;;22.07;15.18;101406.41;4391083;32;33831;-67
2022/03/23 10:40:14;;;;;;;15.07;8.82;;;;;;;23.16;14.48;101405.25;4392358;32;34975;-67
2022/03/23 10:42:43;;;;;;;13.38;8.50;;;;;;;23.55;14.28;101396.25;4404916;32;33703;-67
2022/03/23 10:45:19;;;;;;;;;;;;;;;23.68;13.70;101395.59;4384401;32;33863;-67
2022/03/23 10:47:48;;;;;;;11.95;7.68;;;;;;;24.06;13.74;101395.31;4366220;32;34090;-67
2022/03/23 10:50:21;;;;;;;15.98;7.80;;;;;;;23.81;13.73;101385.25;4387540;32;33938;-67
2022/03/23 10:53:07;;;;;;;13.55;7.90;;;;;;;24.21;13.13;101380.53;4388835;32;35487;-67
2022/03/23 10:55:39;;;;;;;12.02;7.93;;;;;;;23.62;13.02;101384.88;4396652;32;34583;-67
2022/03/23 10:58:12;;;;;;;13.30;7.72;;;;;;;23.95;13.06;101378.38;4398699;32;33546;-65
2022/03/23 11:00:40;;;;;;;13.25;7.53;;;;;;;23.95;12.81;101373.09;4404867;32;34126;-66
2022/03/23 11:03:09;;;;;;;18.98;8.55;;;;;;;24.10;12.58;101378.59;4396171;32;33504;-67
2022/03/23 11:05:46;;;;;;;13.32;8.85;;;;;;;24.52;12.91;101377.44;4399176;32;34704;-68
2022/03/23 11:08:18;;;;;;;13.77;8.32;;;;;;;24.00;13.30;101371.41;4397845;32;34717;-67
2022/03/23 11:16:30;;;;;;;17.05;8.75;;;;;;;24.38;12.59;101357.81;4402393;32;34722;-67
2022/03/23 11:19:05;;;;;;;14.48;7.55;;;;;;;24.18;12.68;101359.31;4392669;32;33859;-67
2022/03/23 11:21:32;;;;;;;;;;;;;;;24.48;12.46;101343.81;4395763;32;34153;-67
2022/03/23 11:24:00;;;;;;;16.37;7.87;;;;;;;24.43;12.55;101345.50;4390116;32;33810;-66
2022/03/23 11:26:28;;;;;;;14.05;7.57;;;;;;;24.54;12.29;101343.03;4391749;32;34019;-65
2022/03/23 11:28:56;;;;;;;16.67;7.70;;;;;;;24.56;12.50;101345.72;4386240;32;33647;-66
2022/03/23 11:31:24;;;;;;;12.20;7.40;;;;;;;24.45;12.47;101338.47;4391536;32;34037;-66
2022/03/23 11:33:54;;;;;;;14.85;8.35;;;;;;;24.91;12.22;101333.72;4391728;32;33757;-66
2022/03/23 11:36:24;;;;;;;14.38;7.57;;;;;;;24.41;12.42;101331.34;4384165;32;34545;-66
2022/03/23 11:38:52;;;;;;;14.48;7.10;;;;;;;24.82;12.15;101323.06;4395567;32;32789;-65
2022/03/23 11:41:20;;;;;;;18.67;7.82;;;;;;;24.87;12.14;101323.97;4385018;32;33916;-67
2022/03/23 11:43:47;;;;;;;14.85;7.78;;;;;;;24.69;12.83;101321.16;4399640;32;33449;-66